sensor_id;sensor_type;location;lat;lon;timestamp;temperature;humidity
33903;DHT22;20194;50.950;5.346;2023-02-11T00:01:25;7.40;49.00
33903;DHT22;20194;50.950;5.346;2023-02-11T00:03:51;7.30;50.20
33903;DHT22;20194;50.950;5.346;2023-02-11T00:06:17;7.30;49.80
33903;DHT22;20194;50.950;5.346;2023-02-11T00:08:43;7.30;49.60
33903;DHT22;20194;50.950;5.346;2023-02-11T00:11:15;7.20;52.10
33903;DHT22;20194;50.950;5.346;2023-02-11T00:13:45;7.20;51.50
33903;DHT22;20194;50.950;5.346;2023-02-11T00:16:14;7.20;49.00
33903;DHT22;20194;50.950;5.346;2023-02-11T00:18:40;7.10;50.60
33903;DHT22;20194;50.950;5.346;2023-02-11T00:21:17;7.00;52.80
33903;DHT22;20194;50.950;5.346;2023-02-11T00:23:43;6.90;52.50
33903;DHT22;20194;50.950;5.346;2023-02-11T00:26:18;6.90;51.60
33903;DHT22;20194;50.950;5.346;2023-02-11T00:28:44;6.80;54.10
33903;DHT22;20194;50.950;5.346;2023-02-11T00:31:11;6.90;54.60
33903;DHT22;20194;50.950;5.346;2023-02-11T00:33:38;6.80;53.80
33903;DHT22;20194;50.950;5.346;2023-02-11T00:36:08;6.80;54.70
33903;DHT22;20194;50.950;5.346;2023-02-11T00:38:34;6.80;55.50
33903;DHT22;20194;50.950;5.346;2023-02-11T00:41:00;6.90;53.80
33903;DHT22;20194;50.950;5.346;2023-02-11T00:43:26;6.80;54.50
33903;DHT22;20194;50.950;5.346;2023-02-11T00:45:52;6.80;54.50
33903;DHT22;20194;50.950;5.346;2023-02-11T00:48:18;6.80;54.50
33903;DHT22;20194;50.950;5.346;2023-02-11T00:50:44;6.90;54.70
33903;DHT22;20194;50.950;5.346;2023-02-11T00:53:10;6.90;54.80
33903;DHT22;20194;50.950;5.346;2023-02-11T00:55:35;6.80;54.80
33903;DHT22;20194;50.950;5.346;2023-02-11T00:58:01;6.90;56.40
33903;DHT22;20194;50.950;5.346;2023-02-11T01:00:27;6.80;55.30
33903;DHT22;20194;50.950;5.346;2023-02-11T01:02:53;6.90;56.60
33903;DHT22;20194;50.950;5.346;2023-02-11T01:05:20;6.90;55.70
33903;DHT22;20194;50.950;5.346;2023-02-11T01:07:46;6.90;54.90
33903;DHT22;20194;50.950;5.346;2023-02-11T01:10:14;7.00;55.90
33903;DHT22;20194;50.950;5.346;2023-02-11T01:12:40;6.90;54.90
33903;DHT22;20194;50.950;5.346;2023-02-11T01:15:07;6.80;56.30
33903;DHT22;20194;50.950;5.346;2023-02-11T01:17:34;6.90;55.40
33903;DHT22;20194;50.950;5.346;2023-02-11T01:20:05;6.90;55.30
33903;DHT22;20194;50.950;5.346;2023-02-11T01:22:32;7.00;55.20
33903;DHT22;20194;50.950;5.346;2023-02-11T01:24:59;6.90;55.40
33903;DHT22;20194;50.950;5.346;2023-02-11T01:27:24;6.90;55.30
33903;DHT22;20194;50.950;5.346;2023-02-11T01:29:50;6.70;56.40
33903;DHT22;20194;50.950;5.346;2023-02-11T01:32:16;6.70;57.40
33903;DHT22;20194;50.950;5.346;2023-02-11T01:34:41;6.70;57.00
33903;DHT22;20194;50.950;5.346;2023-02-11T01:37:07;6.70;56.60
33903;DHT22;20194;50.950;5.346;2023-02-11T01:39:34;6.70;56.60
33903;DHT22;20194;50.950;5.346;2023-02-11T01:42:00;6.70;56.50
33903;DHT22;20194;50.950;5.346;2023-02-11T01:44:29;6.80;56.30
33903;DHT22;20194;50.950;5.346;2023-02-11T01:46:55;6.70;56.70
33903;DHT22;20194;50.950;5.346;2023-02-11T01:51:55;6.80;56.20
33903;DHT22;20194;50.950;5.346;2023-02-11T01:54:25;6.70;56.50
33903;DHT22;20194;50.950;5.346;2023-02-11T01:57:14;6.80;56.10
33903;DHT22;20194;50.950;5.346;2023-02-11T02:07:40;6.80;56.70
33903;DHT22;20194;50.950;5.346;2023-02-11T02:10:13;6.70;56.10
33903;DHT22;20194;50.950;5.346;2023-02-11T02:12:40;6.80;56.80
33903;DHT22;20194;50.950;5.346;2023-02-11T02:15:32;6.80;56.50
33903;DHT22;20194;50.950;5.346;2023-02-11T02:18:02;6.80;57.10
33903;DHT22;20194;50.950;5.346;2023-02-11T02:20:50;6.90;55.60
33903;DHT22;20194;50.950;5.346;2023-02-11T02:23:29;6.80;55.20
33903;DHT22;20194;50.950;5.346;2023-02-11T02:34:56;6.60;58.10
33903;DHT22;20194;50.950;5.346;2023-02-11T02:37:31;6.60;57.80
33903;DHT22;20194;50.950;5.346;2023-02-11T02:40:03;6.70;57.20
33903;DHT22;20194;50.950;5.346;2023-02-11T02:42:31;6.80;56.60
33903;DHT22;20194;50.950;5.346;2023-02-11T02:44:58;6.70;57.20
33903;DHT22;20194;50.950;5.346;2023-02-11T02:47:24;6.60;57.60
33903;DHT22;20194;50.950;5.346;2023-02-11T02:49:50;6.60;58.10
33903;DHT22;20194;50.950;5.346;2023-02-11T02:58:04;6.70;58.00
33903;DHT22;20194;50.950;5.346;2023-02-11T03:00:40;6.70;58.00
33903;DHT22;20194;50.950;5.346;2023-02-11T03:03:29;6.70;57.90
33903;DHT22;20194;50.950;5.346;2023-02-11T03:08:56;6.70;57.30
33903;DHT22;20194;50.950;5.346;2023-02-11T03:11:23;6.70;57.90
33903;DHT22;20194;50.950;5.346;2023-02-11T03:13:51;6.60;58.30
33903;DHT22;20194;50.950;5.346;2023-02-11T03:16:25;6.70;59.00
33903;DHT22;20194;50.950;5.346;2023-02-11T03:19:19;6.80;58.80
33903;DHT22;20194;50.950;5.346;2023-02-11T03:21:46;6.80;57.90
33903;DHT22;20194;50.950;5.346;2023-02-11T03:24:32;6.70;57.30
33903;DHT22;20194;50.950;5.346;2023-02-11T03:30:17;6.80;58.60
33903;DHT22;20194;50.950;5.346;2023-02-11T03:32:55;6.90;57.80
33903;DHT22;20194;50.950;5.346;2023-02-11T03:35:26;6.90;56.70
33903;DHT22;20194;50.950;5.346;2023-02-11T03:37:58;6.90;57.20
33903;DHT22;20194;50.950;5.346;2023-02-11T03:40:28;6.90;56.60
33903;DHT22;20194;50.950;5.346;2023-02-11T03:42:58;6.90;56.90
33903;DHT22;20194;50.950;5.346;2023-02-11T03:45:26;6.90;57.30
33903;DHT22;20194;50.950;5.346;2023-02-11T03:48:12;6.90;58.00
33903;DHT22;20194;50.950;5.346;2023-02-11T03:50:40;6.90;57.70
33903;DHT22;20194;50.950;5.346;2023-02-11T03:53:07;6.90;57.70
33903;DHT22;20194;50.950;5.346;2023-02-11T03:55:37;6.90;56.30
33903;DHT22;20194;50.950;5.346;2023-02-11T03:58:04;7.00;57.20
33903;DHT22;20194;50.950;5.346;2023-02-11T04:00:35;7.00;56.10
33903;DHT22;20194;50.950;5.346;2023-02-11T04:03:02;7.00;55.70
33903;DHT22;20194;50.950;5.346;2023-02-11T04:05:27;7.00;56.30
33903;DHT22;20194;50.950;5.346;2023-02-11T04:07:54;7.00;57.30
33903;DHT22;20194;50.950;5.346;2023-02-11T04:10:19;7.10;56.00
33903;DHT22;20194;50.950;5.346;2023-02-11T04:12:45;7.10;57.30
33903;DHT22;20194;50.950;5.346;2023-02-11T04:15:11;7.10;56.00
33903;DHT22;20194;50.950;5.346;2023-02-11T04:17:37;7.00;56.50
33903;DHT22;20194;50.950;5.346;2023-02-11T04:20:04;7.10;57.20
33903;DHT22;20194;50.950;5.346;2023-02-11T04:22:29;7.10;56.40
33903;DHT22;20194;50.950;5.346;2023-02-11T04:24:55;7.00;56.70
33903;DHT22;20194;50.950;5.346;2023-02-11T04:27:21;6.90;58.30
33903;DHT22;20194;50.950;5.346;2023-02-11T04:29:47;7.00;58.90
33903;DHT22;20194;50.950;5.346;2023-02-11T04:32:13;7.00;57.80
33903;DHT22;20194;50.950;5.346;2023-02-11T04:34:39;6.90;59.10
33903;DHT22;20194;50.950;5.346;2023-02-11T04:37:05;6.80;60.80
33903;DHT22;20194;50.950;5.346;2023-02-11T04:39:30;6.70;61.50
33903;DHT22;20194;50.950;5.346;2023-02-11T04:41:56;6.70;62.80
33903;DHT22;20194;50.950;5.346;2023-02-11T04:44:22;6.60;63.40
33903;DHT22;20194;50.950;5.346;2023-02-11T04:46:48;6.70;63.60
33903;DHT22;20194;50.950;5.346;2023-02-11T04:49:15;6.80;63.30
33903;DHT22;20194;50.950;5.346;2023-02-11T04:51:42;6.80;62.60
33903;DHT22;20194;50.950;5.346;2023-02-11T04:54:09;6.80;61.60
33903;DHT22;20194;50.950;5.346;2023-02-11T04:56:34;6.70;62.60
33903;DHT22;20194;50.950;5.346;2023-02-11T04:59:01;6.80;63.10
33903;DHT22;20194;50.950;5.346;2023-02-11T05:01:27;6.70;63.10
33903;DHT22;20194;50.950;5.346;2023-02-11T05:03:52;6.80;63.90
33903;DHT22;20194;50.950;5.346;2023-02-11T05:06:18;6.80;62.60
33903;DHT22;20194;50.950;5.346;2023-02-11T05:08:44;7.00;62.00
33903;DHT22;20194;50.950;5.346;2023-02-11T05:11:18;7.00;60.70
33903;DHT22;20194;50.950;5.346;2023-02-11T05:13:45;7.00;60.90
33903;DHT22;20194;50.950;5.346;2023-02-11T05:16:11;7.00;60.10
33903;DHT22;20194;50.950;5.346;2023-02-11T05:18:38;7.00;59.50
33903;DHT22;20194;50.950;5.346;2023-02-11T05:21:08;6.90;60.80
33903;DHT22;20194;50.950;5.346;2023-02-11T05:23:34;6.90;62.10
33903;DHT22;20194;50.950;5.346;2023-02-11T05:26:01;6.90;62.50
33903;DHT22;20194;50.950;5.346;2023-02-11T05:28:28;6.80;63.80
33903;DHT22;20194;50.950;5.346;2023-02-11T05:30:54;6.90;64.50
33903;DHT22;20194;50.950;5.346;2023-02-11T05:33:20;6.90;63.70
33903;DHT22;20194;50.950;5.346;2023-02-11T05:35:46;6.90;64.90
33903;DHT22;20194;50.950;5.346;2023-02-11T05:38:11;6.80;64.30
33903;DHT22;20194;50.950;5.346;2023-02-11T05:40:38;6.90;65.10
33903;DHT22;20194;50.950;5.346;2023-02-11T05:43:04;6.90;64.40
33903;DHT22;20194;50.950;5.346;2023-02-11T05:45:30;6.90;65.40
33903;DHT22;20194;50.950;5.346;2023-02-11T05:47:56;6.90;65.90
33903;DHT22;20194;50.950;5.346;2023-02-11T05:50:22;6.80;65.70
33903;DHT22;20194;50.950;5.346;2023-02-11T05:52:48;6.80;66.70
33903;DHT22;20194;50.950;5.346;2023-02-11T05:55:14;6.90;67.10
33903;DHT22;20194;50.950;5.346;2023-02-11T05:57:40;7.00;66.10
33903;DHT22;20194;50.950;5.346;2023-02-11T06:00:07;7.10;66.80
33903;DHT22;20194;50.950;5.346;2023-02-11T06:02:33;7.00;65.40
33903;DHT22;20194;50.950;5.346;2023-02-11T06:04:58;6.90;66.20
33903;DHT22;20194;50.950;5.346;2023-02-11T06:07:25;7.10;66.70
33903;DHT22;20194;50.950;5.346;2023-02-11T06:09:51;7.00;65.50
33903;DHT22;20194;50.950;5.346;2023-02-11T06:12:16;7.00;66.40
33903;DHT22;20194;50.950;5.346;2023-02-11T06:14:42;7.00;66.70
33903;DHT22;20194;50.950;5.346;2023-02-11T06:17:08;7.00;66.70
33903;DHT22;20194;50.950;5.346;2023-02-11T06:19:34;6.90;66.70
33903;DHT22;20194;50.950;5.346;2023-02-11T06:22:00;6.90;67.50
33903;DHT22;20194;50.950;5.346;2023-02-11T06:24:26;7.00;67.80
33903;DHT22;20194;50.950;5.346;2023-02-11T06:26:51;7.00;66.80
33903;DHT22;20194;50.950;5.346;2023-02-11T06:29:17;7.10;66.50
33903;DHT22;20194;50.950;5.346;2023-02-11T06:31:43;7.10;66.30
33903;DHT22;20194;50.950;5.346;2023-02-11T06:34:09;7.10;65.40
33903;DHT22;20194;50.950;5.346;2023-02-11T06:36:37;7.10;66.10
33903;DHT22;20194;50.950;5.346;2023-02-11T06:39:03;7.10;65.70
33903;DHT22;20194;50.950;5.346;2023-02-11T06:41:29;7.10;66.40
33903;DHT22;20194;50.950;5.346;2023-02-11T06:43:55;7.10;66.50
33903;DHT22;20194;50.950;5.346;2023-02-11T06:46:21;7.10;65.00
33903;DHT22;20194;50.950;5.346;2023-02-11T06:48:48;7.20;66.40
33903;DHT22;20194;50.950;5.346;2023-02-11T06:51:15;7.20;65.10
33903;DHT22;20194;50.950;5.346;2023-02-11T06:53:44;7.30;65.60
33903;DHT22;20194;50.950;5.346;2023-02-11T06:56:13;7.30;63.60
33903;DHT22;20194;50.950;5.346;2023-02-11T06:58:39;7.30;64.60
33903;DHT22;20194;50.950;5.346;2023-02-11T07:01:07;7.20;65.30
33903;DHT22;20194;50.950;5.346;2023-02-11T07:03:38;7.20;66.80
33903;DHT22;20194;50.950;5.346;2023-02-11T07:06:06;7.10;66.50
33903;DHT22;20194;50.950;5.346;2023-02-11T07:08:33;7.10;66.70
33903;DHT22;20194;50.950;5.346;2023-02-11T07:10:58;7.10;67.30
33903;DHT22;20194;50.950;5.346;2023-02-11T07:13:24;7.10;68.10
33903;DHT22;20194;50.950;5.346;2023-02-11T07:15:50;7.20;68.60
33903;DHT22;20194;50.950;5.346;2023-02-11T07:18:16;7.10;67.20
33903;DHT22;20194;50.950;5.346;2023-02-11T07:20:42;7.00;67.90
33903;DHT22;20194;50.950;5.346;2023-02-11T07:23:08;6.90;69.10
33903;DHT22;20194;50.950;5.346;2023-02-11T07:25:34;7.00;70.30
33903;DHT22;20194;50.950;5.346;2023-02-11T07:28:02;7.00;69.70
33903;DHT22;20194;50.950;5.346;2023-02-11T07:30:28;7.00;69.70
33903;DHT22;20194;50.950;5.346;2023-02-11T07:32:54;6.90;69.90
33903;DHT22;20194;50.950;5.346;2023-02-11T07:35:20;6.90;70.90
33903;DHT22;20194;50.950;5.346;2023-02-11T07:37:46;7.00;70.50
33903;DHT22;20194;50.950;5.346;2023-02-11T07:40:12;7.00;69.70
33903;DHT22;20194;50.950;5.346;2023-02-11T07:42:38;7.10;70.00
33903;DHT22;20194;50.950;5.346;2023-02-11T07:45:05;7.10;70.00
33903;DHT22;20194;50.950;5.346;2023-02-11T07:47:33;7.10;69.50
33903;DHT22;20194;50.950;5.346;2023-02-11T07:49:59;7.20;70.40
33903;DHT22;20194;50.950;5.346;2023-02-11T07:52:24;7.30;68.30
33903;DHT22;20194;50.950;5.346;2023-02-11T07:54:53;7.30;68.40
33903;DHT22;20194;50.950;5.346;2023-02-11T07:57:19;7.30;68.60
33903;DHT22;20194;50.950;5.346;2023-02-11T07:59:44;7.20;68.40
33903;DHT22;20194;50.950;5.346;2023-02-11T08:02:10;7.10;69.40
33903;DHT22;20194;50.950;5.346;2023-02-11T08:04:36;7.10;70.10
33903;DHT22;20194;50.950;5.346;2023-02-11T08:07:02;7.10;70.20
33903;DHT22;20194;50.950;5.346;2023-02-11T08:09:28;7.20;70.80
33903;DHT22;20194;50.950;5.346;2023-02-11T08:11:53;7.20;70.30
33903;DHT22;20194;50.950;5.346;2023-02-11T08:14:19;7.20;70.60
33903;DHT22;20194;50.950;5.346;2023-02-11T08:16:45;7.30;70.30
33903;DHT22;20194;50.950;5.346;2023-02-11T08:19:13;7.20;70.20
33903;DHT22;20194;50.950;5.346;2023-02-11T08:21:40;7.20;70.50
33903;DHT22;20194;50.950;5.346;2023-02-11T08:24:06;7.20;70.30
33903;DHT22;20194;50.950;5.346;2023-02-11T08:26:33;7.20;71.20
33903;DHT22;20194;50.950;5.346;2023-02-11T08:29:00;7.20;71.10
33903;DHT22;20194;50.950;5.346;2023-02-11T08:31:29;7.20;71.70
33903;DHT22;20194;50.950;5.346;2023-02-11T08:33:55;7.30;71.40
33903;DHT22;20194;50.950;5.346;2023-02-11T08:36:26;7.20;70.80
33903;DHT22;20194;50.950;5.346;2023-02-11T08:38:55;7.20;71.50
33903;DHT22;20194;50.950;5.346;2023-02-11T08:41:20;7.30;72.40
33903;DHT22;20194;50.950;5.346;2023-02-11T08:43:46;7.30;70.80
33903;DHT22;20194;50.950;5.346;2023-02-11T08:46:16;7.20;71.80
33903;DHT22;20194;50.950;5.346;2023-02-11T08:48:42;7.20;71.90
33903;DHT22;20194;50.950;5.346;2023-02-11T08:51:11;7.30;71.80
33903;DHT22;20194;50.950;5.346;2023-02-11T08:53:38;7.30;71.80
33903;DHT22;20194;50.950;5.346;2023-02-11T08:56:04;7.30;72.00
33903;DHT22;20194;50.950;5.346;2023-02-11T08:58:31;7.40;72.00
33903;DHT22;20194;50.950;5.346;2023-02-11T09:00:57;7.60;71.30
33903;DHT22;20194;50.950;5.346;2023-02-11T09:03:23;7.50;68.60
33903;DHT22;20194;50.950;5.346;2023-02-11T09:05:49;7.40;69.80
33903;DHT22;20194;50.950;5.346;2023-02-11T09:08:18;7.40;70.80
33903;DHT22;20194;50.950;5.346;2023-02-11T09:10:44;7.50;71.00
33903;DHT22;20194;50.950;5.346;2023-02-11T09:13:10;7.70;69.10
33903;DHT22;20194;50.950;5.346;2023-02-11T09:15:36;7.70;67.60
33903;DHT22;20194;50.950;5.346;2023-02-11T09:18:02;7.60;67.60
33903;DHT22;20194;50.950;5.346;2023-02-11T09:20:28;7.70;67.80
33903;DHT22;20194;50.950;5.346;2023-02-11T09:22:56;7.80;67.40
33903;DHT22;20194;50.950;5.346;2023-02-11T09:25:22;7.90;66.20
33903;DHT22;20194;50.950;5.346;2023-02-11T09:27:48;7.90;64.30
33903;DHT22;20194;50.950;5.346;2023-02-11T09:30:15;7.80;66.00
33903;DHT22;20194;50.950;5.346;2023-02-11T09:32:41;7.70;66.90
33903;DHT22;20194;50.950;5.346;2023-02-11T09:35:07;7.80;67.30
33903;DHT22;20194;50.950;5.346;2023-02-11T09:37:33;7.80;66.60
33903;DHT22;20194;50.950;5.346;2023-02-11T09:39:59;7.80;67.20
33903;DHT22;20194;50.950;5.346;2023-02-11T09:45:16;7.70;67.50
33903;DHT22;20194;50.950;5.346;2023-02-11T09:47:56;7.70;69.10
33903;DHT22;20194;50.950;5.346;2023-02-11T09:50:34;7.70;68.60
33903;DHT22;20194;50.950;5.346;2023-02-11T09:53:09;7.70;68.40
33903;DHT22;20194;50.950;5.346;2023-02-11T09:55:39;7.80;69.10
33903;DHT22;20194;50.950;5.346;2023-02-11T09:58:15;7.60;69.30
33903;DHT22;20194;50.950;5.346;2023-02-11T10:00:50;7.70;70.30
33903;DHT22;20194;50.950;5.346;2023-02-11T10:03:22;7.80;70.20
33903;DHT22;20194;50.950;5.346;2023-02-11T10:06:39;7.90;68.80
33903;DHT22;20194;50.950;5.346;2023-02-11T10:12:18;8.00;67.30
33903;DHT22;20194;50.950;5.346;2023-02-11T10:23:16;8.00;67.50
33903;DHT22;20194;50.950;5.346;2023-02-11T10:25:48;8.00;68.10
33903;DHT22;20194;50.950;5.346;2023-02-11T10:28:20;7.90;68.40
33903;DHT22;20194;50.950;5.346;2023-02-11T10:35:57;8.10;67.50
33903;DHT22;20194;50.950;5.346;2023-02-11T10:38:22;8.10;68.30
33903;DHT22;20194;50.950;5.346;2023-02-11T10:40:49;8.00;69.00
33903;DHT22;20194;50.950;5.346;2023-02-11T10:43:16;8.10;69.00
33903;DHT22;20194;50.950;5.346;2023-02-11T10:45:50;8.10;69.00
33903;DHT22;20194;50.950;5.346;2023-02-11T10:48:36;8.20;68.40
33903;DHT22;20194;50.950;5.346;2023-02-11T10:53:35;8.40;66.10
33903;DHT22;20194;50.950;5.346;2023-02-11T10:56:02;8.40;65.50
33903;DHT22;20194;50.950;5.346;2023-02-11T11:01:06;8.40;64.60
33903;DHT22;20194;50.950;5.346;2023-02-11T11:03:39;8.20;66.50
33903;DHT22;20194;50.950;5.346;2023-02-11T11:06:10;8.20;68.10
33903;DHT22;20194;50.950;5.346;2023-02-11T11:08:48;8.10;67.80
33903;DHT22;20194;50.950;5.346;2023-02-11T11:11:20;8.10;68.10
33903;DHT22;20194;50.950;5.346;2023-02-11T11:13:54;8.20;69.20
33903;DHT22;20194;50.950;5.346;2023-02-11T11:16:29;8.30;68.80
33903;DHT22;20194;50.950;5.346;2023-02-11T11:24:24;8.40;66.40
33903;DHT22;20194;50.950;5.346;2023-02-11T11:26:56;8.40;66.40
33903;DHT22;20194;50.950;5.346;2023-02-11T11:29:37;8.50;66.90
33903;DHT22;20194;50.950;5.346;2023-02-11T11:32:24;8.50;66.30
33903;DHT22;20194;50.950;5.346;2023-02-11T11:34:54;8.60;64.80
33903;DHT22;20194;50.950;5.346;2023-02-11T11:37:29;8.60;63.60
33903;DHT22;20194;50.950;5.346;2023-02-11T11:40:06;8.50;65.30
33903;DHT22;20194;50.950;5.346;2023-02-11T11:42:34;8.50;64.00
33903;DHT22;20194;50.950;5.346;2023-02-11T11:45:01;8.40;64.80
33903;DHT22;20194;50.950;5.346;2023-02-11T11:53:06;8.50;65.50
33903;DHT22;20194;50.950;5.346;2023-02-11T11:55:43;8.50;65.40
33903;DHT22;20194;50.950;5.346;2023-02-11T11:58:19;8.60;65.60
33903;DHT22;20194;50.950;5.346;2023-02-11T12:01:07;8.60;66.00
33903;DHT22;20194;50.950;5.346;2023-02-11T12:03:50;8.60;65.50
33903;DHT22;20194;50.950;5.346;2023-02-11T12:06:27;8.60;65.10
33903;DHT22;20194;50.950;5.346;2023-02-11T12:17:31;8.70;64.60
33903;DHT22;20194;50.950;5.346;2023-02-11T12:42:23;8.60;66.90
33903;DHT22;20194;50.950;5.346;2023-02-11T13:05:11;8.80;66.40
33903;DHT22;20194;50.950;5.346;2023-02-11T13:07:44;8.80;65.10
33903;DHT22;20194;50.950;5.346;2023-02-11T13:12:43;8.80;65.20
33903;DHT22;20194;50.950;5.346;2023-02-11T13:15:28;8.80;65.70
33903;DHT22;20194;50.950;5.346;2023-02-11T13:24:06;9.10;63.60
33903;DHT22;20194;50.950;5.346;2023-02-11T13:32:20;9.10;62.10
33903;DHT22;20194;50.950;5.346;2023-02-11T13:34:52;9.20;62.80
33903;DHT22;20194;50.950;5.346;2023-02-11T13:37:33;9.10;60.80
33903;DHT22;20194;50.950;5.346;2023-02-11T13:42:55;9.00;62.60
33903;DHT22;20194;50.950;5.346;2023-02-11T13:47:58;9.20;62.50
33903;DHT22;20194;50.950;5.346;2023-02-11T13:50:25;9.30;60.70
33903;DHT22;20194;50.950;5.346;2023-02-11T13:53:00;9.30;60.40
33903;DHT22;20194;50.950;5.346;2023-02-11T13:55:26;9.20;60.50
33903;DHT22;20194;50.950;5.346;2023-02-11T14:16:19;9.20;63.40
33903;DHT22;20194;50.950;5.346;2023-02-11T14:21:16;9.10;64.70
33903;DHT22;20194;50.950;5.346;2023-02-11T14:23:43;9.20;65.20
33903;DHT22;20194;50.950;5.346;2023-02-11T14:28:58;9.30;63.80
33903;DHT22;20194;50.950;5.346;2023-02-11T14:37:02;9.40;62.50
33903;DHT22;20194;50.950;5.346;2023-02-11T14:39:39;9.50;60.90
33903;DHT22;20194;50.950;5.346;2023-02-11T14:42:17;9.50;61.60
33903;DHT22;20194;50.950;5.346;2023-02-11T14:44:46;9.50;61.20
33903;DHT22;20194;50.950;5.346;2023-02-11T14:47:18;9.40;61.30
33903;DHT22;20194;50.950;5.346;2023-02-11T14:49:45;9.30;61.50
33903;DHT22;20194;50.950;5.346;2023-02-11T14:52:26;9.30;61.80
33903;DHT22;20194;50.950;5.346;2023-02-11T14:55:11;9.20;62.70
33903;DHT22;20194;50.950;5.346;2023-02-11T14:57:39;9.20;64.60
33903;DHT22;20194;50.950;5.346;2023-02-11T15:00:22;9.30;63.80
33903;DHT22;20194;50.950;5.346;2023-02-11T15:02:47;9.50;62.90
33903;DHT22;20194;50.950;5.346;2023-02-11T15:05:26;9.60;60.20
33903;DHT22;20194;50.950;5.346;2023-02-11T15:08:00;9.40;61.00
33903;DHT22;20194;50.950;5.346;2023-02-11T15:10:34;9.50;61.00
33903;DHT22;20194;50.950;5.346;2023-02-11T15:13:01;9.40;60.40
33903;DHT22;20194;50.950;5.346;2023-02-11T15:15:28;9.40;61.40
33903;DHT22;20194;50.950;5.346;2023-02-11T15:17:57;9.60;60.20
33903;DHT22;20194;50.950;5.346;2023-02-11T15:20:26;9.70;59.30
33903;DHT22;20194;50.950;5.346;2023-02-11T15:22:59;9.70;57.60
33903;DHT22;20194;50.950;5.346;2023-02-11T15:25:25;9.70;57.90
33903;DHT22;20194;50.950;5.346;2023-02-11T15:27:55;9.70;57.60
33903;DHT22;20194;50.950;5.346;2023-02-11T15:32:55;9.90;56.30
33903;DHT22;20194;50.950;5.346;2023-02-11T15:35:29;9.60;58.40
33903;DHT22;20194;50.950;5.346;2023-02-11T15:37:57;9.60;59.30
33903;DHT22;20194;50.950;5.346;2023-02-11T15:40:28;9.80;58.70
33903;DHT22;20194;50.950;5.346;2023-02-11T15:42:58;9.70;57.20
33903;DHT22;20194;50.950;5.346;2023-02-11T15:45:58;9.60;57.50
33903;DHT22;20194;50.950;5.346;2023-02-11T15:53:39;9.50;59.60
33903;DHT22;20194;50.950;5.346;2023-02-11T15:58:38;9.40;62.60
33903;DHT22;20194;50.950;5.346;2023-02-11T16:01:05;9.40;62.60
33903;DHT22;20194;50.950;5.346;2023-02-11T16:03:32;9.40;61.90
33903;DHT22;20194;50.950;5.346;2023-02-11T16:06:23;9.50;59.30
33903;DHT22;20194;50.950;5.346;2023-02-11T16:11:54;9.50;58.20
33903;DHT22;20194;50.950;5.346;2023-02-11T16:17:12;9.60;58.60
33903;DHT22;20194;50.950;5.346;2023-02-11T16:19:48;9.80;57.80
33903;DHT22;20194;50.950;5.346;2023-02-11T16:22:22;9.80;57.10
33903;DHT22;20194;50.950;5.346;2023-02-11T16:24:50;9.80;56.70
33903;DHT22;20194;50.950;5.346;2023-02-11T16:27:27;9.70;57.50
33903;DHT22;20194;50.950;5.346;2023-02-11T16:29:55;9.60;57.50
33903;DHT22;20194;50.950;5.346;2023-02-11T16:32:24;9.70;58.60
33903;DHT22;20194;50.950;5.346;2023-02-11T16:34:52;9.70;57.10
33903;DHT22;20194;50.950;5.346;2023-02-11T16:37:18;9.50;58.40
33903;DHT22;20194;50.950;5.346;2023-02-11T16:39:44;9.40;59.10
33903;DHT22;20194;50.950;5.346;2023-02-11T16:42:10;9.40;61.00
33903;DHT22;20194;50.950;5.346;2023-02-11T16:44:36;9.40;60.10
33903;DHT22;20194;50.950;5.346;2023-02-11T16:47:03;9.60;60.70
33903;DHT22;20194;50.950;5.346;2023-02-11T16:49:40;9.60;58.10
33903;DHT22;20194;50.950;5.346;2023-02-11T16:52:11;9.60;58.20
33903;DHT22;20194;50.950;5.346;2023-02-11T16:54:37;9.60;58.40
33903;DHT22;20194;50.950;5.346;2023-02-11T16:57:20;9.60;58.00
33903;DHT22;20194;50.950;5.346;2023-02-11T16:59:47;9.70;58.40
33903;DHT22;20194;50.950;5.346;2023-02-11T17:02:17;9.70;57.60
33903;DHT22;20194;50.950;5.346;2023-02-11T17:04:45;9.80;57.60
33903;DHT22;20194;50.950;5.346;2023-02-11T17:07:11;9.80;55.50
33903;DHT22;20194;50.950;5.346;2023-02-11T17:09:37;9.90;55.10
33903;DHT22;20194;50.950;5.346;2023-02-11T17:12:03;9.90;54.50
33903;DHT22;20194;50.950;5.346;2023-02-11T17:14:29;9.90;54.50
33903;DHT22;20194;50.950;5.346;2023-02-11T17:16:55;9.90;54.20
33903;DHT22;20194;50.950;5.346;2023-02-11T17:19:21;9.90;55.20
33903;DHT22;20194;50.950;5.346;2023-02-11T17:21:49;9.90;52.20
33903;DHT22;20194;50.950;5.346;2023-02-11T17:24:16;9.90;54.40
33903;DHT22;20194;50.950;5.346;2023-02-11T17:26:43;9.80;55.90
33903;DHT22;20194;50.950;5.346;2023-02-11T17:29:13;9.80;54.90
33903;DHT22;20194;50.950;5.346;2023-02-11T17:31:39;9.80;54.70
33903;DHT22;20194;50.950;5.346;2023-02-11T17:34:05;9.80;54.80
33903;DHT22;20194;50.950;5.346;2023-02-11T17:36:31;9.80;55.50
33903;DHT22;20194;50.950;5.346;2023-02-11T17:38:58;9.80;54.10
33903;DHT22;20194;50.950;5.346;2023-02-11T17:41:25;10.00;54.60
33903;DHT22;20194;50.950;5.346;2023-02-11T17:43:51;10.00;53.80
33903;DHT22;20194;50.950;5.346;2023-02-11T17:46:17;10.00;53.40
33903;DHT22;20194;50.950;5.346;2023-02-11T17:48:43;9.70;54.60
33903;DHT22;20194;50.950;5.346;2023-02-11T17:51:28;9.60;56.00
33903;DHT22;20194;50.950;5.346;2023-02-11T17:53:56;9.60;56.90
33903;DHT22;20194;50.950;5.346;2023-02-11T17:56:22;9.40;58.30
33903;DHT22;20194;50.950;5.346;2023-02-11T17:58:48;9.60;60.00
33903;DHT22;20194;50.950;5.346;2023-02-11T18:01:13;9.70;57.40
33903;DHT22;20194;50.950;5.346;2023-02-11T18:03:41;9.60;55.70
33903;DHT22;20194;50.950;5.346;2023-02-11T18:06:07;9.50;56.60
33903;DHT22;20194;50.950;5.346;2023-02-11T18:08:34;9.30;59.50
33903;DHT22;20194;50.950;5.346;2023-02-11T18:11:01;9.40;59.50
33903;DHT22;20194;50.950;5.346;2023-02-11T18:13:27;9.40;59.40
33903;DHT22;20194;50.950;5.346;2023-02-11T18:15:53;9.30;59.60
33903;DHT22;20194;50.950;5.346;2023-02-11T18:18:19;9.50;61.50
33903;DHT22;20194;50.950;5.346;2023-02-11T18:20:44;9.50;58.60
33903;DHT22;20194;50.950;5.346;2023-02-11T18:23:19;9.70;58.50
33903;DHT22;20194;50.950;5.346;2023-02-11T18:25:45;9.70;56.30
33903;DHT22;20194;50.950;5.346;2023-02-11T18:28:10;9.80;55.70
33903;DHT22;20194;50.950;5.346;2023-02-11T18:30:36;9.70;56.60
33903;DHT22;20194;50.950;5.346;2023-02-11T18:33:02;9.80;55.10
33903;DHT22;20194;50.950;5.346;2023-02-11T18:35:31;9.90;54.80
33903;DHT22;20194;50.950;5.346;2023-02-11T18:37:57;9.90;55.80
33903;DHT22;20194;50.950;5.346;2023-02-11T18:40:23;10.00;54.40
33903;DHT22;20194;50.950;5.346;2023-02-11T18:42:48;10.00;54.10
33903;DHT22;20194;50.950;5.346;2023-02-11T18:45:14;10.00;53.40
33903;DHT22;20194;50.950;5.346;2023-02-11T18:47:41;10.10;51.50
33903;DHT22;20194;50.950;5.346;2023-02-11T18:50:07;9.90;52.80
33903;DHT22;20194;50.950;5.346;2023-02-11T18:52:34;9.90;53.30
33903;DHT22;20194;50.950;5.346;2023-02-11T18:55:04;9.90;53.50
33903;DHT22;20194;50.950;5.346;2023-02-11T18:57:30;9.70;55.70
33903;DHT22;20194;50.950;5.346;2023-02-11T18:59:56;9.60;55.80